Flight Track Log - Related Links

Times and Time Zones

All times are in EST time to prevent confusion due to time zone crossing. See the N400PU flight status page for this flight to view local times or setup timezone preferences in your user account.

Time Position Orientation Groundspeed Altitude Reporting Facility
EST Latitude Longitude Course Direction KTS MPH feet Rate Location/Type
Sun 10:06:15 PM 39.3000 -94.7333 173° South 168 193 1,800  Level Kansas City TRACON
Sun 10:07:04 PM 39.2672 -94.7283 173° South 174 200 4,200 2,782 Climbing Kansas City Center
Sun 10:08:05 PM 39.2183 -94.7106 164° South 189 217 6,900 2,459 Climbing Kansas City Center
Sun 10:09:06 PM 39.2117 -94.6011 94° East 283 326 9,200 2,213 Climbing Kansas City Center
Sun 10:10:07 PM 39.2378 -94.5056 71° East 304 350 11,400 1,869 Climbing Kansas City Center
Sun 10:11:08 PM 39.2772 -94.4092 62° Northeast 316 364 13,000 1,672 Climbing Kansas City Center
Sun 10:12:09 PM 39.3269 -94.2950 61° Northeast 326 375 14,800 1,623 Climbing Kansas City Center
Sun 10:13:10 PM 39.3564 -94.1875 70° East 333 383 16,300 1,574 Climbing Kansas City Center
Sun 10:14:11 PM 39.3714 -94.0753 80° East 332 382 18,000 1,279 Climbing Kansas City Center
Sun 10:15:12 PM 39.3878 -93.9400 81° East 341 392 18,900 1,033 Climbing Kansas City Center
Sun 10:16:13 PM 39.4031 -93.8161 81° East 362 417 20,100 1,279 Climbing Kansas City Center
Sun 10:17:14 PM 39.4208 -93.6792 80° East 385 443 21,500 1,328 Climbing Kansas City Center
Sun 10:18:15 PM 39.4375 -93.5417 81° East 390 449 22,800 1,131 Climbing Kansas City Center
Sun 10:19:16 PM 39.4550 -93.4014 81° East 394 453 23,800 984 Climbing Kansas City Center
Sun 10:20:17 PM 39.4731 -93.2628 80° East 397 457 24,800 1,082 Climbing Kansas City Center
Sun 10:21:18 PM 39.4886 -93.1192 82° East 404 465 26,000 1,230 Climbing Kansas City Center
Sun 10:22:19 PM 39.5083 -92.9442 82° East 411 473 27,300 1,131 Climbing Kansas City Center
Sun 10:23:20 PM 39.5247 -92.7931 82° East 420 483 28,300 1,033 Climbing Kansas City Center
Sun 10:24:21 PM 39.5428 -92.6392 81° East 431 496 29,400 1,033 Climbing Kansas City Center
Sun 10:25:22 PM 39.5608 -92.4819 81° East 439 505 30,400 984 Climbing Kansas City Center
Sun 10:26:23 PM 39.5783 -92.3211 82° East 448 516 31,400 1,033 Climbing Kansas City Center
Sun 10:27:24 PM 39.5967 -92.1589 82° East 455 524 32,500 1,033 Climbing Kansas City Center
Sun 10:28:25 PM 39.6147 -91.9942 82° East 461 531 33,500 984 Climbing Kansas City Center
Sun 10:29:26 PM 39.6317 -91.8306 82° East 463 533 34,500 738 Climbing Kansas City Center
Sun 10:30:27 PM 39.6525 -91.6303 82° East 468 539 35,000 246 Climbing Kansas City Center
Sun 10:31:28 PM 39.6694 -91.4569 83° East 479 551 35,000  Level Kansas City Center
Sun 10:32:29 PM 39.6872 -91.2881 82° East 494 568 35,000  Level Kansas City Center
Sun 10:33:30 PM 39.7069 -91.1011 82° East 510 587 35,000  Level Kansas City Center
Sun 10:34:30 PM 39.7253 -90.9150 83° East 516 594 35,000  Level Kansas City Center
Sun 10:35:31 PM 39.7431 -90.7297 83° East 517 595 35,000  Level Kansas City Center
Sun 10:36:32 PM 39.7625 -90.5278 83° East 517 595 35,000  Level Kansas City Center
Sun 10:37:33 PM 39.7806 -90.3414 83° East 521 600 35,000  Level Kansas City Center
Sun 10:38:34 PM 39.7972 -90.1528 83° East 524 603 35,000  Level Kansas City Center
Sun 10:39:35 PM 39.8144 -89.9625 83° East 529 609 35,000  Level Kansas City Center
Sun 10:40:36 PM 39.8314 -89.7758 83° East 527 606 35,000  Level Kansas City Center
Sun 10:41:37 PM 39.8594 -89.5933 79° East 521 600 35,000 -49 Level Kansas City Center
Sun 10:42:38 PM 39.8986 -89.4128 74° East 521 600 34,900 -793 Descending Kansas City Center
Sun 10:43:38 PM 39.9381 -89.2314 74° East 524 603 33,400 -1,670 Descending Kansas City Center
Sun 10:44:15 PM 39.9675 -89.0906 75° East 518 596 32,200 -1,837 Descending Chicago Center
Sun 10:45:16 PM 40.0056 -88.9122 74° East 514 592 30,400 -1,869 Descending Chicago Center
Sun 10:46:17 PM 40.0436 -88.7394 74° East 501 577 28,400 -2,164 Descending Chicago Center
Sun 10:47:18 PM 40.0792 -88.5692 75° East 490 564 26,000 -2,459 Descending Chicago Center
Sun 10:48:19 PM 40.1156 -88.4000 74° East 487 560 23,400 -2,656 Descending Chicago Center
Sun 10:49:20 PM 40.1525 -88.2350 74° East 479 551 20,600 -2,754 Descending Chicago Center
Sun 10:50:21 PM 40.1922 -88.0750 72° East 441 507 17,800 -2,902 Descending Chicago Center
Sun 10:51:22 PM 40.2283 -87.9197 73° East 433 498 14,700 -3,049 Descending Chicago Center
Sun 10:52:23 PM 40.2597 -87.7850 73° East 395 455 11,600 -2,656 Descending Chicago Center
Sun 10:53:24 PM 40.2869 -87.6708 73° East 339 390 9,300 -1,869 Descending Chicago Center
Sun 10:54:25 PM 40.3100 -87.5694 73° East 301 346 7,800 -1,279 Descending Chicago Center
Sun 10:55:26 PM 40.3294 -87.4850 73° East 253 291 6,700 -1,082 Descending Chicago Center
Sun 10:56:27 PM 40.3469 -87.4119 73° East 229 264 5,600 -836 Descending Chicago Center
Sun 10:57:28 PM 40.3625 -87.3386 74° East 215 247 5,000 -496 Descending Chicago Center
Sun 10:58:28 PM 40.3800 -87.2603 74° East 218 251 4,600 -645 Descending Chicago Center
Sun 10:59:29 PM 40.4006 -87.1736 73° East 235 270 3,700 -836 Descending Chicago Center
Sun 11:00:30 PM 40.4194 -87.0900 73° East 223 257 2,900 -492 Descending Chicago Center
Sun 11:01:31 PM 40.4372 -87.0208 71° East 218 251 2,700 -197 Descending Chicago Center
Sun 11:03:00 PM 40.4123 -86.9369 72° East  Level Estimated
Sun 11:10:00 PM 40.4123 -86.9369 72° East  Level Estimated

Login

Don't have an account? Register now (free) for customized features, flight alerts, and more!